Time;durP1;ratioP1;P1;durP2;ratioP2;P2;SDS_P1;SDS_P2;PMS_P1;PMS_P2;Temp;Humidity;BMP_temperature;BMP_pressure;BME280_temperature;BME280_humidity;BME280_pressure;Samples;Min_cycle;Max_cycle;Signal;HPM_P1;HPM_P2
2020/12/08 00:00:48;;;;;;;;;;;19.00;39.40;;;;;;491474;240;1135;-53
2020/12/08 00:02:49;;;;;;;;;;;19.00;39.40;;;;;;491767;240;2184;-53
2020/12/08 00:04:51;;;;;;;;;;;19.00;39.40;;;;;;491506;240;1148;-53
2020/12/08 00:06:52;;;;;;;;;;;19.00;39.40;;;;;;491546;240;1255;-53
2020/12/08 00:08:53;;;;;;;;;;;19.00;39.30;;;;;;491588;240;1101;-53
2020/12/08 00:10:54;;;;;;;;;;;19.00;39.40;;;;;;491528;240;1308;-53
2020/12/08 00:12:56;;;;;;;;;;;19.00;39.30;;;;;;491668;240;1291;-53
2020/12/08 00:14:57;;;;;;;;;;;19.00;39.30;;;;;;491654;240;1232;-53
2020/12/08 00:16:59;;;;;;;;;;;19.10;39.30;;;;;;491605;240;1160;-53
2020/12/08 00:19:00;;;;;;;;;;;19.10;39.30;;;;;;491616;240;1118;-53
2020/12/08 00:21:01;;;;;;;;;;;19.10;39.30;;;;;;491513;240;1253;-53
2020/12/08 00:23:02;;;;;;;;;;;19.10;39.30;;;;;;491537;240;2203;-53
2020/12/08 00:25:04;;;;;;;;;;;19.10;39.30;;;;;;491580;240;1124;-53
2020/12/08 00:27:05;;;;;;;;;;;19.10;39.30;;;;;;491617;240;1137;-53
2020/12/08 00:29:06;;;;;;;;;;;19.10;39.30;;;;;;491561;240;1374;-53
2020/12/08 00:31:07;;;;;;;;;;;19.10;39.20;;;;;;491504;240;1136;-53
2020/12/08 00:33:09;;;;;;;;;;;19.10;39.20;;;;;;491521;240;1109;-53
2020/12/08 00:35:10;;;;;;;;;;;19.20;39.30;;;;;;491756;240;1109;-53
2020/12/08 00:37:11;;;;;;;;;;;19.20;39.20;;;;;;491564;240;1517;-53
2020/12/08 00:39:13;;;;;;;;;;;19.20;39.20;;;;;;491523;240;1099;-53
2020/12/08 00:41:14;;;;;;;;;;;19.10;39.20;;;;;;491636;240;1030;-53
2020/12/08 00:43:15;;;;;;;;;;;19.20;39.20;;;;;;491617;240;2192;-53
2020/12/08 00:45:16;;;;;;;;;;;19.20;39.20;;;;;;491619;240;1089;-53
2020/12/08 00:47:18;;;;;;;;;;;19.20;39.20;;;;;;491754;240;1291;-54
2020/12/08 00:49:19;;;;;;;;;;;19.20;39.20;;;;;;491587;240;1115;-54
2020/12/08 00:51:20;;;;;;;;;;;19.20;39.10;;;;;;491750;240;1186;-54
2020/12/08 00:53:22;;;;;;;;;;;19.30;39.20;;;;;;491550;240;1217;-53
2020/12/08 00:55:23;;;;;;;;;;;19.30;39.10;;;;;;491740;240;1117;-53
2020/12/08 00:57:24;;;;;;;;;;;19.30;39.10;;;;;;491546;240;1160;-53
2020/12/08 00:59:25;;;;;;;;;;;19.30;39.10;;;;;;491579;240;1059;-53
2020/12/08 01:01:27;;;;;;;;;;;19.30;39.10;;;;;;491522;240;1552;-53
2020/12/08 01:03:28;;;;;;;;;;;19.30;39.10;;;;;;491500;240;2173;-53
2020/12/08 01:05:29;;;;;;;;;;;19.30;39.10;;;;;;491595;240;1184;-53
2020/12/08 01:07:31;;;;;;;;;;;19.30;39.10;;;;;;491598;240;1171;-53
2020/12/08 01:09:32;;;;;;;;;;;19.30;39.00;;;;;;491686;240;1071;-53
2020/12/08 01:11:33;;;;;;;;;;;19.30;39.00;;;;;;491673;240;1367;-53
2020/12/08 01:13:35;;;;;;;;;;;19.30;39.00;;;;;;491792;240;1098;-53
2020/12/08 01:15:36;;;;;;;;;;;19.30;39.00;;;;;;491488;240;1220;-53
2020/12/08 01:17:37;;;;;;;;;;;19.30;39.00;;;;;;491539;240;1230;-53
2020/12/08 01:19:39;;;;;;;;;;;19.40;39.00;;;;;;491765;240;1084;-53
2020/12/08 01:21:40;;;;;;;;;;;19.30;39.00;;;;;;491598;240;1166;-53
2020/12/08 01:23:41;;;;;;;;;;;19.40;39.00;;;;;;491670;240;2191;-53
2020/12/08 01:25:42;;;;;;;;;;;19.40;39.00;;;;;;491477;240;1365;-53
2020/12/08 01:27:44;;;;;;;;;;;19.40;39.00;;;;;;491536;240;1179;-53
2020/12/08 01:29:45;;;;;;;;;;;19.40;39.00;;;;;;491710;240;1115;-54
2020/12/08 01:31:46;;;;;;;;;;;19.40;39.00;;;;;;491578;240;1207;-53
2020/12/08 01:33:48;;;;;;;;;;;19.40;38.90;;;;;;491799;240;1166;-53
2020/12/08 01:35:49;;;;;;;;;;;19.40;37.70;;;;;;491660;240;1181;-53
2020/12/08 01:37:50;;;;;;;;;;;19.40;39.00;;;;;;491485;240;1177;-53
2020/12/08 01:39:51;;;;;;;;;;;19.40;39.00;;;;;;491545;240;1224;-53
2020/12/08 01:41:53;;;;;;;;;;;19.40;38.90;;;;;;491507;240;1156;-53
2020/12/08 01:43:54;;;;;;;;;;;19.50;39.00;;;;;;491580;240;2180;-53
2020/12/08 01:45:56;;;;;;;;;;;19.40;38.90;;;;;;491531;240;1182;-52
2020/12/08 01:47:57;;;;;;;;;;;19.50;38.90;;;;;;491501;240;1233;-53
2020/12/08 01:49:58;;;;;;;;;;;19.40;38.90;;;;;;491574;240;1199;-53
2020/12/08 01:51:59;;;;;;;;;;;19.40;38.90;;;;;;491526;240;1470;-53
2020/12/08 01:54:01;;;;;;;;;;;19.40;38.90;;;;;;491606;240;1104;-53
2020/12/08 01:56:02;;;;;;;;;;;19.50;38.90;;;;;;491537;240;1303;-53
2020/12/08 01:58:03;;;;;;;;;;;19.50;38.90;;;;;;491558;240;1174;-53
2020/12/08 02:00:05;;;;;;;;;;;19.50;38.80;;;;;;491740;240;1228;-53
2020/12/08 02:02:06;;;;;;;;;;;19.50;38.90;;;;;;491599;240;1225;-53
2020/12/08 02:04:07;;;;;;;;;;;19.50;38.90;;;;;;491612;240;2188;-53
2020/12/08 02:06:08;;;;;;;;;;;19.50;38.90;;;;;;491648;240;1339;-53
2020/12/08 02:08:10;;;;;;;;;;;19.50;38.80;;;;;;491612;240;1182;-53
2020/12/08 02:10:11;;;;;;;;;;;19.50;38.80;;;;;;491709;240;1159;-53
2020/12/08 02:12:12;;;;;;;;;;;19.50;38.80;;;;;;491542;240;1203;-53
2020/12/08 02:14:13;;;;;;;;;;;19.60;38.90;;;;;;491786;240;1206;-53
2020/12/08 02:16:15;;;;;;;;;;;19.60;38.90;;;;;;491658;240;1160;-53
2020/12/08 02:18:16;;;;;;;;;;;19.60;38.90;;;;;;491577;240;1178;-53
2020/12/08 02:20:17;;;;;;;;;;;19.60;38.80;;;;;;491623;240;1199;-53
2020/12/08 02:22:19;;;;;;;;;;;19.60;38.90;;;;;;491565;240;1192;-53
2020/12/08 02:24:20;;;;;;;;;;;19.60;38.80;;;;;;491723;240;2204;-53
2020/12/08 02:26:21;;;;;;;;;;;19.60;38.80;;;;;;491503;240;1326;-54
2020/12/08 02:28:22;;;;;;;;;;;19.60;38.90;;;;;;491620;240;1311;-53
2020/12/08 02:30:24;;;;;;;;;;;19.60;38.80;;;;;;491592;240;1322;-54
2020/12/08 02:32:25;;;;;;;;;;;19.60;38.80;;;;;;491765;240;1164;-53
2020/12/08 02:34:26;;;;;;;;;;;19.60;38.80;;;;;;491604;240;1214;-53
2020/12/08 02:36:28;;;;;;;;;;;19.60;38.80;;;;;;491587;240;1053;-53
2020/12/08 02:38:29;;;;;;;;;;;19.60;38.70;;;;;;491649;240;1197;-54
2020/12/08 02:40:30;;;;;;;;;;;19.60;38.80;;;;;;491551;240;1365;-53
2020/12/08 02:42:31;;;;;;;;;;;19.60;38.80;;;;;;491770;240;1208;-53
2020/12/08 02:44:33;;;;;;;;;;;19.60;38.70;;;;;;491599;240;2176;-53
2020/12/08 02:46:34;;;;;;;;;;;19.60;38.70;;;;;;491625;240;1122;-53
2020/12/08 02:48:35;;;;;;;;;;;19.60;38.80;;;;;;491829;240;1282;-53
2020/12/08 02:50:36;;;;;;;;;;;19.70;38.80;;;;;;491669;240;1067;-53
2020/12/08 02:52:38;;;;;;;;;;;19.60;38.70;;;;;;491766;240;1171;-53
2020/12/08 02:54:39;;;;;;;;;;;19.70;38.80;;;;;;491530;240;1125;-54
2020/12/08 02:56:40;;;;;;;;;;;19.70;38.80;;;;;;491512;240;1449;-54
2020/12/08 02:58:42;;;;;;;;;;;19.60;38.70;;;;;;491525;240;1284;-53
2020/12/08 03:00:43;;;;;;;;;;;19.70;38.70;;;;;;491642;240;1015;-53
2020/12/08 03:02:44;;;;;;;;;;;19.70;38.70;;;;;;491695;240;1406;-53
2020/12/08 03:04:45;;;;;;;;;;;19.70;38.70;;;;;;491652;240;2180;-53
2020/12/08 03:06:47;;;;;;;;;;;19.70;38.70;;;;;;491707;240;1119;-53
2020/12/08 03:08:48;;;;;;;;;;;19.70;38.70;;;;;;491459;240;1328;-53
2020/12/08 03:10:50;;;;;;;;;;;19.70;38.70;;;;;;491737;240;1074;-53
2020/12/08 03:12:51;;;;;;;;;;;19.70;38.70;;;;;;491807;240;1220;-53
2020/12/08 03:14:52;;;;;;;;;;;19.70;38.60;;;;;;491839;240;1242;-53
2020/12/08 03:16:53;;;;;;;;;;;19.70;38.60;;;;;;491590;240;974;-53
2020/12/08 03:18:55;;;;;;;;;;;19.80;39.00;;;;;;491573;240;1116;-53
2020/12/08 03:20:56;;;;;;;;;;;19.80;38.70;;;;;;491694;240;1076;-53
2020/12/08 03:22:57;;;;;;;;;;;19.80;38.60;;;;;;491531;240;1236;-53
2020/12/08 03:24:59;;;;;;;;;;;19.90;38.50;;;;;;491745;240;2196;-53
2020/12/08 03:27:00;;;;;;;;;;;19.80;38.50;;;;;;491536;240;2250;-53
2020/12/08 03:29:01;;;;;;;;;;;19.80;38.60;;;;;;491553;240;1230;-53
2020/12/08 03:31:02;;;;;;;;;;;19.80;38.70;;;;;;491540;240;1070;-53
2020/12/08 03:33:04;;;;;;;;;;;19.70;38.70;;;;;;491554;240;1338;-53
2020/12/08 03:35:05;;;;;;;;;;;19.70;38.90;;;;;;491591;240;1241;-53
2020/12/08 03:37:07;;;;;;;;;;;19.70;38.90;;;;;;491569;240;1289;-53
2020/12/08 03:39:08;;;;;;;;;;;19.60;39.00;;;;;;491560;240;1071;-53
2020/12/08 03:41:09;;;;;;;;;;;19.60;39.00;;;;;;491562;240;1043;-54
2020/12/08 03:43:10;;;;;;;;;;;19.50;39.10;;;;;;491689;240;1279;-53
2020/12/08 03:45:12;;;;;;;;;;;19.50;39.20;;;;;;491613;240;2176;-53
2020/12/08 03:47:13;;;;;;;;;;;19.50;39.20;;;;;;491555;240;1252;-53
2020/12/08 03:49:14;;;;;;;;;;;19.40;39.20;;;;;;491610;240;1193;-53
2020/12/08 03:51:15;;;;;;;;;;;19.40;39.30;;;;;;491579;240;1101;-53
2020/12/08 03:53:17;;;;;;;;;;;19.30;39.30;;;;;;491596;240;1753;-53
2020/12/08 03:55:18;;;;;;;;;;;19.30;39.40;;;;;;491623;240;1064;-53
2020/12/08 03:57:19;;;;;;;;;;;19.30;39.50;;;;;;491520;240;1164;-52
2020/12/08 03:59:21;;;;;;;;;;;19.30;39.60;;;;;;491703;240;1010;-53
2020/12/08 04:01:22;;;;;;;;;;;19.20;39.50;;;;;;491545;240;1182;-53
2020/12/08 04:03:23;;;;;;;;;;;19.20;39.60;;;;;;491629;240;1059;-53
2020/12/08 04:05:24;;;;;;;;;;;19.20;39.70;;;;;;491602;240;2192;-53
2020/12/08 04:07:26;;;;;;;;;;;19.10;39.70;;;;;;491702;240;1063;-53
2020/12/08 04:09:27;;;;;;;;;;;19.10;39.70;;;;;;491607;240;1057;-53
2020/12/08 04:11:28;;;;;;;;;;;19.10;39.80;;;;;;491589;240;1503;-53
2020/12/08 04:13:30;;;;;;;;;;;19.10;39.80;;;;;;491611;240;1068;-53
2020/12/08 04:15:31;;;;;;;;;;;19.00;39.90;;;;;;491710;240;1565;-53
2020/12/08 04:17:32;;;;;;;;;;;19.00;39.90;;;;;;491537;240;1165;-53
2020/12/08 04:19:33;;;;;;;;;;;19.00;39.90;;;;;;491578;240;1202;-53
2020/12/08 04:21:35;;;;;;;;;;;19.00;40.00;;;;;;491503;240;1149;-54
2020/12/08 04:23:36;;;;;;;;;;;18.90;40.00;;;;;;491679;240;1083;-53
2020/12/08 04:25:37;;;;;;;;;;;18.90;40.00;;;;;;491526;240;2167;-53
2020/12/08 04:27:38;;;;;;;;;;;18.90;40.10;;;;;;491599;240;1056;-53
2020/12/08 04:29:40;;;;;;;;;;;18.90;40.10;;;;;;491688;240;1139;-53
2020/12/08 04:31:41;;;;;;;;;;;18.80;40.10;;;;;;491505;240;1141;-53
2020/12/08 04:33:42;;;;;;;;;;;18.80;40.10;;;;;;491547;240;1060;-53
2020/12/08 04:35:44;;;;;;;;;;;18.80;40.10;;;;;;491560;240;1197;-53
2020/12/08 04:37:45;;;;;;;;;;;18.80;40.20;;;;;;491536;240;978;-53
2020/12/08 04:39:46;;;;;;;;;;;18.80;40.20;;;;;;491553;240;1061;-53
2020/12/08 04:41:47;;;;;;;;;;;18.80;40.30;;;;;;491516;240;1053;-53
2020/12/08 04:43:49;;;;;;;;;;;18.70;40.20;;;;;;491492;240;1195;-54
2020/12/08 04:45:50;;;;;;;;;;;18.70;40.30;;;;;;491625;240;2203;-53
2020/12/08 04:47:51;;;;;;;;;;;18.70;40.30;;;;;;491583;240;1123;-53
2020/12/08 04:49:53;;;;;;;;;;;18.70;40.30;;;;;;491563;240;1376;-53
2020/12/08 04:51:54;;;;;;;;;;;18.70;40.40;;;;;;491652;240;1083;-53
2020/12/08 04:53:55;;;;;;;;;;;18.70;40.40;;;;;;491854;240;1064;-53
2020/12/08 04:55:56;;;;;;;;;;;18.60;40.40;;;;;;491627;240;1442;-52
2020/12/08 04:57:58;;;;;;;;;;;18.60;40.40;;;;;;491447;240;1418;-53
2020/12/08 04:59:59;;;;;;;;;;;18.60;40.40;;;;;;491507;240;1357;-53
2020/12/08 05:02:00;;;;;;;;;;;18.60;40.40;;;;;;491615;240;1077;-53
2020/12/08 05:04:02;;;;;;;;;;;18.60;40.50;;;;;;491546;240;1454;-53
2020/12/08 05:06:03;;;;;;;;;;;18.60;40.50;;;;;;491559;240;2192;-53
2020/12/08 05:08:04;;;;;;;;;;;18.60;40.50;;;;;;491691;240;1185;-52
2020/12/08 05:10:05;;;;;;;;;;;18.60;40.50;;;;;;491801;240;1346;-53
2020/12/08 05:12:07;;;;;;;;;;;18.50;40.50;;;;;;491474;240;1144;-53
2020/12/08 05:14:08;;;;;;;;;;;18.50;40.50;;;;;;491438;240;1175;-53
2020/12/08 05:16:09;;;;;;;;;;;18.50;40.50;;;;;;491413;240;1186;-53
2020/12/08 05:18:11;;;;;;;;;;;18.50;40.60;;;;;;491609;240;1165;-53
2020/12/08 05:20:12;;;;;;;;;;;18.50;40.60;;;;;;491508;240;1133;-53
2020/12/08 05:22:13;;;;;;;;;;;18.40;39.20;;;;;;491485;240;1298;-52
2020/12/08 05:24:14;;;;;;;;;;;18.40;40.60;;;;;;491587;240;1031;-53
2020/12/08 05:26:16;;;;;;;;;;;18.50;40.60;;;;;;491562;240;2192;-52
2020/12/08 05:28:17;;;;;;;;;;;18.40;40.60;;;;;;491595;240;1083;-53
2020/12/08 05:30:18;;;;;;;;;;;18.40;40.60;;;;;;491464;240;1313;-53
2020/12/08 05:32:19;;;;;;;;;;;18.40;40.60;;;;;;491508;240;1116;-53
2020/12/08 05:34:21;;;;;;;;;;;18.40;40.70;;;;;;491505;240;1284;-53
2020/12/08 05:36:22;;;;;;;;;;;18.40;40.70;;;;;;491428;240;1693;-52
2020/12/08 05:38:24;;;;;;;;;;;18.40;40.70;;;;;;491331;240;1095;-53
2020/12/08 05:40:25;;;;;;;;;;;18.30;40.60;;;;;;491293;240;1162;-53
2020/12/08 05:42:26;;;;;;;;;;;18.40;40.70;;;;;;491409;240;1115;-53
2020/12/08 05:44:28;;;;;;;;;;;18.30;40.70;;;;;;491418;240;2172;-53
2020/12/08 05:46:29;;;;;;;;;;;18.30;40.70;;;;;;491342;240;1088;-53
2020/12/08 05:48:30;;;;;;;;;;;18.30;40.70;;;;;;491321;240;1333;-53
2020/12/08 05:50:32;;;;;;;;;;;18.30;40.70;;;;;;491320;240;1298;-53
2020/12/08 05:52:33;;;;;;;;;;;18.30;40.70;;;;;;491400;240;1211;-53
2020/12/08 05:54:34;;;;;;;;;;;18.30;40.80;;;;;;491462;240;1445;-53
2020/12/08 05:56:35;;;;;;;;;;;18.30;40.80;;;;;;491444;240;1163;-53
2020/12/08 05:58:37;;;;;;;;;;;18.30;40.80;;;;;;491341;240;1390;-52
2020/12/08 06:00:38;;;;;;;;;;;18.20;40.80;;;;;;491266;240;1196;-53
2020/12/08 06:02:39;;;;;;;;;;;18.20;40.80;;;;;;491313;240;1180;-53
2020/12/08 06:04:41;;;;;;;;;;;18.20;40.80;;;;;;491290;240;2172;-53
2020/12/08 06:06:42;;;;;;;;;;;18.20;40.80;;;;;;491258;240;1294;-53
2020/12/08 06:08:43;;;;;;;;;;;18.20;39.50;;;;;;491214;240;1189;-53
2020/12/08 06:10:44;;;;;;;;;;;18.20;40.80;;;;;;491187;240;1232;-52
2020/12/08 06:12:46;;;;;;;;;;;18.20;40.80;;;;;;491187;240;1184;-52
2020/12/08 06:14:47;;;;;;;;;;;18.20;40.80;;;;;;491193;240;1186;-54
2020/12/08 06:16:48;;;;;;;;;;;18.20;39.50;;;;;;491245;240;1233;-53
2020/12/08 06:18:49;;;;;;;;;;;18.20;40.80;;;;;;491371;240;1270;-52
2020/12/08 06:20:51;;;;;;;;;;;18.20;40.80;;;;;;491253;240;1231;-53
2020/12/08 06:22:52;;;;;;;;;;;18.20;40.70;;;;;;491079;240;1283;-54
2020/12/08 06:24:53;;;;;;;;;;;18.30;40.70;;;;;;491096;240;2200;-53
2020/12/08 06:26:55;;;;;;;;;;;18.30;40.60;;;;;;491111;240;1193;-53
2020/12/08 06:28:56;;;;;;;;;;;18.30;40.50;;;;;;491187;240;1175;-53
2020/12/08 06:30:57;;;;;;;;;;;18.30;40.50;;;;;;491217;240;1081;-53
2020/12/08 06:32:58;;;;;;;;;;;18.30;40.40;;;;;;491084;240;1185;-53
2020/12/08 06:35:00;;;;;;;;;;;18.40;40.40;;;;;;491074;240;1072;-53
2020/12/08 06:37:01;;;;;;;;;;;18.40;40.40;;;;;;491099;240;1203;-53
2020/12/08 06:39:02;;;;;;;;;;;18.40;40.30;;;;;;491112;240;1075;-53
2020/12/08 06:41:04;;;;;;;;;;;18.40;40.30;;;;;;490810;240;1108;-53
2020/12/08 06:43:05;;;;;;;;;;;18.40;40.30;;;;;;490979;240;1130;-53
2020/12/08 06:45:06;;;;;;;;;;;18.40;38.90;;;;;;491029;240;2191;-53
2020/12/08 06:47:07;;;;;;;;;;;18.50;38.90;;;;;;491000;240;1080;-53
2020/12/08 06:49:12;;;;;;;;;;;18.50;40.20;;;;;;491071;240;1107;-53
2020/12/08 06:51:10;;;;;;;;;;;18.50;40.10;;;;;;490974;241;2408;-53
2020/12/08 06:53:11;;;;;;;;;;;18.50;40.10;;;;;;491160;240;1221;-53
2020/12/08 06:55:12;;;;;;;;;;;18.50;40.00;;;;;;491200;240;1070;-53
2020/12/08 06:57:14;;;;;;;;;;;18.60;40.00;;;;;;491250;240;1081;-53
2020/12/08 06:59:15;;;;;;;;;;;18.60;40.00;;;;;;491257;240;1070;-54
2020/12/08 07:01:17;;;;;;;;;;;18.60;38.60;;;;;;490948;240;1307;-53
2020/12/08 07:03:18;;;;;;;;;;;18.60;39.90;;;;;;491143;240;1134;-53
2020/12/08 07:05:19;;;;;;;;;;;18.60;39.90;;;;;;491017;240;2200;-53
2020/12/08 07:07:21;;;;;;;;;;;18.70;39.90;;;;;;490910;240;1198;-53
2020/12/08 07:09:22;;;;;;;;;;;18.70;39.80;;;;;;490951;240;1097;-53
2020/12/08 07:11:23;;;;;;;;;;;18.70;39.80;;;;;;490974;240;1287;-53
2020/12/08 07:13:25;;;;;;;;;;;18.70;39.80;;;;;;491020;240;1216;-53
2020/12/08 07:15:26;;;;;;;;;;;18.70;39.80;;;;;;490864;240;1555;-53
2020/12/08 07:17:27;;;;;;;;;;;18.70;39.70;;;;;;491083;240;1186;-53
2020/12/08 07:19:29;;;;;;;;;;;18.80;39.70;;;;;;491024;240;1061;-53
2020/12/08 07:21:30;;;;;;;;;;;18.80;39.70;;;;;;490952;240;1233;-53
2020/12/08 07:23:32;;;;;;;;;;;18.80;38.30;;;;;;490901;240;1163;-53
2020/12/08 07:25:33;;;;;;;;;;;18.80;39.60;;;;;;490947;240;2184;-53
2020/12/08 07:27:34;;;;;;;;;;;18.80;39.60;;;;;;490937;240;1078;-54
2020/12/08 07:29:35;;;;;;;;;;;18.80;39.50;;;;;;490869;240;1174;-53
2020/12/08 07:31:37;;;;;;;;;;;18.90;39.60;;;;;;490968;240;1106;-53
2020/12/08 07:33:38;;;;;;;;;;;18.90;39.60;;;;;;490831;240;1124;-53
2020/12/08 07:35:40;;;;;;;;;;;18.90;39.50;;;;;;490909;240;1214;-53
2020/12/08 07:37:41;;;;;;;;;;;18.90;38.20;;;;;;490894;240;1183;-53
2020/12/08 07:39:42;;;;;;;;;;;18.90;39.50;;;;;;490950;240;1074;-53
2020/12/08 07:41:43;;;;;;;;;;;18.90;39.40;;;;;;491023;240;1117;-53
2020/12/08 07:43:50;;;;;;;;;;;15.60;36.30;;;;;;501956;234;1297;-54
2020/12/08 07:45:51;;;;;;;;;;;19.00;38.10;;;;;;490923;241;1101;-54
2020/12/08 07:47:53;;;;;;;;;;;19.00;39.40;;;;;;491076;240;1177;-53
2020/12/08 07:49:54;;;;;;;;;;;19.00;39.30;;;;;;491066;240;1154;-54
2020/12/08 07:51:55;;;;;;;;;;;19.00;39.30;;;;;;491018;240;1214;-53
2020/12/08 07:53:59;;;;;;;;;;;19.00;39.30;;;;;;491020;240;1319;-54
2020/12/08 07:55:59;;;;;;;;;;;19.00;39.30;;;;;;490874;242;2147;-53
2020/12/08 07:58:00;;;;;;;;;;;19.00;39.30;;;;;;490847;240;1350;-53
2020/12/08 08:00:01;;;;;;;;;;;19.10;39.30;;;;;;491649;240;1069;-54
2020/12/08 08:02:03;;;;;;;;;;;19.10;39.30;;;;;;491225;240;2184;-53
2020/12/08 08:04:04;;;;;;;;;;;19.10;39.30;;;;;;490876;240;1279;-53
2020/12/08 08:06:05;;;;;;;;;;;19.10;39.20;;;;;;490878;240;1210;-54
2020/12/08 08:08:07;;;;;;;;;;;19.10;39.20;;;;;;491093;240;1277;-53
2020/12/08 08:10:08;;;;;;;;;;;19.10;39.20;;;;;;491071;240;1289;-54
2020/12/08 08:12:09;;;;;;;;;;;19.20;39.20;;;;;;491007;240;1204;-53
2020/12/08 08:14:11;;;;;;;;;;;19.20;39.20;;;;;;490623;240;1162;-53
2020/12/08 08:16:12;;;;;;;;;;;19.20;39.20;;;;;;490873;240;1262;-54
2020/12/08 08:18:13;;;;;;;;;;;19.20;39.10;;;;;;490960;240;1134;-54
2020/12/08 08:20:15;;;;;;;;;;;19.10;39.10;;;;;;490934;240;1226;-54
2020/12/08 08:22:16;;;;;;;;;;;19.20;39.10;;;;;;490878;240;2196;-54
2020/12/08 08:24:18;;;;;;;;;;;19.20;39.10;;;;;;490772;240;1067;-53
2020/12/08 08:26:19;;;;;;;;;;;19.20;39.00;;;;;;490775;240;1088;-54
2020/12/08 08:28:20;;;;;;;;;;;19.20;39.00;;;;;;490980;240;1211;-54
2020/12/08 08:30:22;;;;;;;;;;;19.20;39.10;;;;;;491039;240;1264;-54
2020/12/08 08:32:23;;;;;;;;;;;19.20;39.00;;;;;;490981;240;1111;-53
2020/12/08 08:34:24;;;;;;;;;;;19.30;39.10;;;;;;490850;240;1261;-54
2020/12/08 08:36:25;;;;;;;;;;;19.30;39.10;;;;;;490856;240;1138;-53
2020/12/08 08:38:27;;;;;;;;;;;19.30;39.00;;;;;;490817;240;1135;-53
2020/12/08 08:40:28;;;;;;;;;;;19.30;39.00;;;;;;490797;240;1451;-53
2020/12/08 08:42:29;;;;;;;;;;;19.30;39.00;;;;;;491012;240;2180;-54
2020/12/08 08:44:31;;;;;;;;;;;19.30;39.00;;;;;;490978;240;1108;-54
2020/12/08 08:46:33;;;;;;;;;;;19.30;39.00;;;;;;490967;240;1263;-54
2020/12/08 08:48:34;;;;;;;;;;;19.30;38.90;;;;;;490908;240;1060;-53
2020/12/08 08:50:35;;;;;;;;;;;19.30;38.90;;;;;;490670;240;1467;-54
2020/12/08 08:52:36;;;;;;;;;;;19.30;38.90;;;;;;490721;240;1129;-53
2020/12/08 08:54:38;;;;;;;;;;;19.30;38.90;;;;;;490781;240;1062;-54
2020/12/08 08:56:39;;;;;;;;;;;19.30;38.90;;;;;;490929;240;1199;-54
2020/12/08 08:58:41;;;;;;;;;;;19.30;38.90;;;;;;490911;240;1196;-54
2020/12/08 09:00:42;;;;;;;;;;;19.40;38.90;;;;;;491017;240;1235;-54
2020/12/08 09:02:44;;;;;;;;;;;19.40;38.90;;;;;;490650;240;2176;-53
2020/12/08 09:04:45;;;;;;;;;;;19.40;38.90;;;;;;490687;240;1301;-54
2020/12/08 09:06:46;;;;;;;;;;;19.40;38.90;;;;;;490952;240;1051;-54
2020/12/08 09:08:48;;;;;;;;;;;19.40;38.90;;;;;;490864;240;1048;-53
2020/12/08 09:10:49;;;;;;;;;;;19.40;38.80;;;;;;490828;240;1439;-53
2020/12/08 09:12:50;;;;;;;;;;;19.40;38.90;;;;;;490648;240;1203;-54
2020/12/08 09:14:55;;;;;;;;;;;19.40;38.80;;;;;;490648;240;1357;-53
2020/12/08 09:16:53;;;;;;;;;;;19.40;38.80;;;;;;491178;241;1940;-54
2020/12/08 09:18:54;;;;;;;;;;;19.40;38.70;;;;;;490873;240;1198;-54
2020/12/08 09:20:55;;;;;;;;;;;19.40;38.80;;;;;;490808;240;1189;-54
2020/12/08 09:22:57;;;;;;;;;;;19.50;38.80;;;;;;490788;240;2192;-54
2020/12/08 09:24:58;;;;;;;;;;;19.40;38.70;;;;;;490760;240;1291;-54
2020/12/08 09:27:00;;;;;;;;;;;19.40;38.70;;;;;;490726;240;1230;-54
2020/12/08 09:29:01;;;;;;;;;;;19.50;38.70;;;;;;490647;240;1193;-54
2020/12/08 09:31:02;;;;;;;;;;;19.50;38.70;;;;;;490568;240;1232;-54
2020/12/08 09:33:04;;;;;;;;;;;19.50;38.70;;;;;;490837;240;2208;-53
2020/12/08 09:35:05;;;;;;;;;;;19.50;38.70;;;;;;490572;239;1269;-53
2020/12/08 09:37:06;;;;;;;;;;;19.50;37.40;;;;;;490638;240;1205;-54
2020/12/08 09:39:08;;;;;;;;;;;19.50;38.70;;;;;;491322;240;1328;-54
2020/12/08 09:41:09;;;;;;;;;;;19.50;38.70;;;;;;490978;240;1066;-53
2020/12/08 09:43:10;;;;;;;;;;;19.50;38.70;;;;;;490769;240;2196;-54
2020/12/08 09:45:12;;;;;;;;;;;19.50;38.70;;;;;;490711;240;1306;-54
2020/12/08 09:47:14;;;;;;;;;;;19.60;38.70;;;;;;490743;240;1066;-54
2020/12/08 09:49:15;;;;;;;;;;;19.60;38.70;;;;;;490732;240;2232;-54
2020/12/08 09:51:16;;;;;;;;;;;19.60;38.70;;;;;;490687;240;1332;-54
2020/12/08 09:53:18;;;;;;;;;;;19.60;38.80;;;;;;490633;240;1161;-54
2020/12/08 09:55:19;;;;;;;;;;;19.60;38.70;;;;;;490623;240;1041;-54
2020/12/08 09:57:20;;;;;;;;;;;19.60;38.70;;;;;;490846;240;1369;-53
2020/12/08 09:59:22;;;;;;;;;;;19.60;38.70;;;;;;490695;240;1185;-54
2020/12/08 10:01:23;;;;;;;;;;;19.60;38.60;;;;;;490870;240;1050;-54
2020/12/08 10:03:24;;;;;;;;;;;19.60;38.70;;;;;;490682;240;2176;-54
2020/12/08 10:05:26;;;;;;;;;;;19.60;38.60;;;;;;491206;240;1110;-54
2020/12/08 10:07:27;;;;;;;;;;;19.60;38.60;;;;;;491030;240;1108;-54
2020/12/08 10:09:28;;;;;;;;;;;19.60;38.60;;;;;;490846;240;1087;-54
2020/12/08 10:11:30;;;;;;;;;;;19.60;38.60;;;;;;490779;240;1294;-54
2020/12/08 10:13:31;;;;;;;;;;;19.60;38.60;;;;;;490839;239;1299;-53
2020/12/08 10:15:33;;;;;;;;;;;19.60;38.60;;;;;;490873;240;1168;-54
2020/12/08 10:17:34;;;;;;;;;;;19.60;38.60;;;;;;490651;242;2088;-54
2020/12/08 10:19:35;;;;;;;;;;;19.60;38.60;;;;;;490785;240;1332;-54
2020/12/08 10:21:39;;;;;;;;;;;19.70;37.30;;;;;;490641;240;1359;-54
2020/12/08 10:23:38;;;;;;;;;;;19.70;38.60;;;;;;490639;242;2304;-54
2020/12/08 10:25:39;;;;;;;;;;;19.70;38.60;;;;;;490709;240;1334;-54
2020/12/08 10:27:42;;;;;;;;;;;19.70;38.60;;;;;;490777;241;2367;-53
2020/12/08 10:29:42;;;;;;;;;;;19.70;38.60;;;;;;491010;241;2295;-54
2020/12/08 10:31:43;;;;;;;;;;;19.70;38.60;;;;;;490768;240;1208;-54
2020/12/08 10:33:44;;;;;;;;;;;19.70;38.60;;;;;;490859;240;1042;-54
2020/12/08 10:35:46;;;;;;;;;;;19.70;38.50;;;;;;490740;240;1744;-54
2020/12/08 10:37:47;;;;;;;;;;;19.70;38.50;;;;;;490815;240;1464;-53
2020/12/08 10:39:49;;;;;;;;;;;19.70;38.50;;;;;;490877;240;1217;-53
2020/12/08 10:41:50;;;;;;;;;;;19.70;38.50;;;;;;490788;240;1417;-53
2020/12/08 10:43:51;;;;;;;;;;;19.70;38.50;;;;;;490756;240;2172;-54
2020/12/08 10:45:53;;;;;;;;;;;19.70;38.50;;;;;;490716;240;1270;-54
2020/12/08 10:47:54;;;;;;;;;;;19.80;38.60;;;;;;490862;240;1164;-54
2020/12/08 10:49:55;;;;;;;;;;;19.70;38.50;;;;;;490854;240;1429;-54
2020/12/08 10:51:57;;;;;;;;;;;19.80;38.50;;;;;;490847;240;1550;-54
2020/12/08 10:53:58;;;;;;;;;;;19.80;38.50;;;;;;490848;240;1157;-54
2020/12/08 10:56:00;;;;;;;;;;;19.80;38.50;;;;;;490688;240;1283;-54
2020/12/08 10:58:02;;;;;;;;;;;19.80;38.50;;;;;;490983;240;1118;-53
2020/12/08 11:00:03;;;;;;;;;;;19.80;38.50;;;;;;491070;240;2243;-54
2020/12/08 11:02:04;;;;;;;;;;;19.80;38.50;;;;;;490737;240;1237;-54
2020/12/08 11:04:05;;;;;;;;;;;19.80;38.50;;;;;;490937;240;2196;-54
2020/12/08 11:06:07;;;;;;;;;;;19.80;38.40;;;;;;490853;240;1252;-54
2020/12/08 11:08:09;;;;;;;;;;;19.80;38.50;;;;;;490780;240;1204;-54
2020/12/08 11:10:09;;;;;;;;;;;19.80;38.50;;;;;;490629;240;2054;-53
2020/12/08 11:12:14;;;;;;;;;;;19.80;38.40;;;;;;490834;240;1197;-53
2020/12/08 11:14:12;;;;;;;;;;;19.80;38.40;;;;;;490923;242;2412;-54
2020/12/08 11:16:13;;;;;;;;;;;19.80;38.40;;;;;;490924;240;1215;-54
2020/12/08 11:18:15;;;;;;;;;;;19.80;38.40;;;;;;490830;240;1098;-53
2020/12/08 11:20:16;;;;;;;;;;;19.80;38.40;;;;;;490679;240;1264;-54
2020/12/08 11:22:17;;;;;;;;;;;19.80;38.40;;;;;;490941;240;1224;-53
2020/12/08 11:24:18;;;;;;;;;;;19.80;38.40;;;;;;490887;240;2195;-53
2020/12/08 11:26:20;;;;;;;;;;;19.90;38.50;;;;;;490902;240;1343;-53
2020/12/08 11:28:21;;;;;;;;;;;19.80;38.40;;;;;;490850;240;1070;-54
2020/12/08 11:30:23;;;;;;;;;;;19.80;38.40;;;;;;490902;240;1181;-54
2020/12/08 11:32:24;;;;;;;;;;;19.80;37.10;;;;;;490802;240;1151;-54
2020/12/08 11:34:25;;;;;;;;;;;19.90;38.40;;;;;;490783;240;1210;-53
2020/12/08 11:36:27;;;;;;;;;;;19.80;38.30;;;;;;490772;240;1387;-53
2020/12/08 11:38:28;;;;;;;;;;;19.90;37.10;;;;;;490839;240;1224;-54
2020/12/08 11:40:29;;;;;;;;;;;19.90;38.40;;;;;;490892;240;1163;-53
2020/12/08 11:42:31;;;;;;;;;;;19.90;38.40;;;;;;490725;240;1318;-54
2020/12/08 11:44:32;;;;;;;;;;;19.90;38.50;;;;;;490720;240;2187;-54
2020/12/08 11:46:34;;;;;;;;;;;19.90;38.70;;;;;;490843;240;1313;-53
2020/12/08 11:48:35;;;;;;;;;;;19.90;38.50;;;;;;490870;240;1282;-54
2020/12/08 11:50:36;;;;;;;;;;;20.00;38.30;;;;;;490906;240;1239;-54
2020/12/08 11:52:38;;;;;;;;;;;20.00;38.30;;;;;;490878;240;1154;-54
2020/12/08 11:54:39;;;;;;;;;;;20.00;38.30;;;;;;490855;240;1101;-53
2020/12/08 11:56:40;;;;;;;;;;;20.00;38.40;;;;;;490723;240;1110;-53